Carthage, North Carolina
Current Conditions -  °F | °C
As of 1:55 AM on Thursday 27 Nov 2014 (Local Time) from KSOP Reporting Station
Overcast Overcast  
Wind Chill: 39°   Ceiling: 1000
Heat Index: 39°   Visibility: 10mi
Dew Point: -11°   Wind: 3mph
Humidity: 11%   Direction: 160°SSE
Pressure: 30.05"   Gusts: NA
Location:  35.35°N, 79.42°W
Report Text: KSOP 270655Z AUTO 16003KT 10SM OVC010 04/M24 A3005 RMK AO1
Loading
Personal Weather Stations






























Interactive Weather Map New forecast layout! Learn more

10-Day Weather Forecast

Advertisements
Track Severe Weather on mobile